Etusivu
METAR-TAF:

METAR-TAF

Lentoasemat :

Nouakchott, Mauritania

Nouakchottin kansainvälinen lentoasema

Leveyspiiri: 18-18-36N, Pituuspiiri: 015-58-11W, korkeus merenpinnasta: 3 m

Tämänhetkinen sää

Tämä raportti tehtiin 47 minuuttia sitten, kello 21.00 UTC
Tuuli 8 kn koillisesta
Lämpötila 20°C
Kosteus 17%
Ilmanpaine 1015 hPa
Näkyvyys: 4000 m
laajalle levinnyttä pölyä

METAR: GQNO 222100Z 05008KT 4000 DU NSC 20/M06 Q1015 NOSIG

Aika: 21:47 (21:47 UTC)

Sääennuste

Tämä raportti tehtiin 4 tuntia ja 47 minuuttia sitten, kello 17.00 UTC
Ennuste voimassa 22. päivästä klo 18 UTC - 23. päivään klo 24 UTC
Tuuli 12 kn idästä/koillisesta
Näkyvyys: 5000 m
laajalle levinnyttä pölyä
Ajoittain
23. päivästä klo 10 UTC - 23. päivään klo 16 UTC
Näkyvyys: 3000 m
hiekkatuisku

TAF: GQNO 221700Z 2218/2324 07012KT 5000 DU NSC TEMPO 2310/2316 3000 BLSA

Säähavainnot ja -ennusteet yli 4000 lentoasemalta (METAR- ja TAF-raportit).

Käytössä olevat sääasemat on merkitty karttaan keltaisilla ja punaisilla pisteillä.

Aseta hiiri pisteen päälle nähdäksesi sääaseman nimen.

Klikkaa sitten nähdäksesi säähavainnot ja -ennusteet.

Kartan vaihtaminen: klikkaa mustalla rastilla varustettuja vihreitä pisteitä, niin voit zoomata sisään; viivalla varustettua vihreää pistettä, niin voit zoomata ulos tai vihreitä nuolia, niin pääset viereisille kartoille.


METAR-TAF: